createdAt,value
2018-08-12T00:04:13.031Z,25.46
2018-08-12T00:09:16.648Z,25.44
2018-08-12T00:14:20.257Z,25.41
2018-08-12T00:19:23.820Z,25.38
2018-08-12T00:24:27.249Z,25.33
2018-08-12T00:29:30.717Z,25.33
2018-08-12T00:34:34.242Z,25.23
2018-08-12T00:39:37.866Z,25.24
2018-08-12T00:44:41.413Z,25.16
2018-08-12T00:49:44.905Z,25.16
2018-08-12T00:54:48.448Z,25.11
2018-08-12T00:59:52.106Z,25.14
2018-08-12T01:04:55.814Z,25.13
2018-08-12T01:09:59.517Z,25.11
2018-08-12T01:15:03.141Z,25.10
2018-08-12T01:20:08.922Z,25.09
2018-08-12T01:25:12.642Z,25.05
2018-08-12T01:30:18.325Z,25.02
2018-08-12T01:35:21.869Z,25.02
2018-08-12T01:40:25.736Z,24.98
2018-08-12T01:45:29.300Z,24.97
2018-08-12T01:50:33.175Z,24.94
2018-08-12T01:55:36.665Z,24.93
2018-08-12T02:00:40.272Z,24.92
2018-08-12T02:05:43.876Z,24.91
2018-08-12T02:10:47.309Z,24.86
2018-08-12T02:15:50.877Z,24.83
2018-08-12T02:20:54.400Z,24.81
2018-08-12T02:25:58.053Z,24.79
2018-08-12T02:31:01.627Z,24.77
2018-08-12T02:36:05.264Z,24.72
2018-08-12T02:41:08.837Z,24.73
2018-08-12T02:46:12.401Z,24.66
2018-08-12T02:51:16.066Z,24.60
2018-08-12T02:56:19.904Z,24.58
2018-08-12T03:01:23.574Z,24.53
2018-08-12T03:06:27.128Z,24.57
2018-08-12T03:11:30.564Z,24.56
2018-08-12T03:16:34.337Z,24.51
2018-08-12T03:21:37.857Z,24.52
2018-08-12T03:26:41.390Z,24.47
2018-08-12T03:31:44.889Z,24.45
2018-08-12T03:36:48.373Z,24.38
2018-08-12T03:41:51.838Z,24.28
2018-08-12T03:46:55.470Z,24.27
2018-08-12T03:51:59.068Z,24.24
2018-08-12T03:57:02.644Z,24.17
2018-08-12T04:02:06.236Z,24.11
2018-08-12T04:07:09.720Z,24.04
2018-08-12T04:12:13.367Z,24.00
2018-08-12T04:17:16.822Z,23.88
2018-08-12T04:22:20.396Z,23.87
2018-08-12T04:27:23.865Z,23.79
2018-08-12T04:32:27.325Z,23.77
2018-08-12T04:37:30.841Z,23.81
2018-08-12T04:42:34.424Z,23.81
2018-08-12T04:47:38.689Z,23.79
2018-08-12T04:52:42.402Z,23.73
2018-08-12T04:57:46.840Z,23.72
2018-08-12T05:02:51.989Z,23.73
2018-08-12T05:07:55.815Z,23.74
2018-08-12T05:12:59.527Z,23.79
2018-08-12T05:18:04.528Z,23.77
2018-08-12T05:23:08.481Z,23.76
2018-08-12T05:28:17.384Z,23.76
2018-08-12T05:33:21.454Z,23.80
2018-08-12T05:38:24.927Z,23.86
2018-08-12T05:43:28.546Z,23.88
2018-08-12T05:48:32.333Z,23.94
2018-08-12T05:53:36.047Z,23.95
2018-08-12T05:58:39.552Z,24.02
2018-08-12T06:03:43.245Z,24.10
2018-08-12T06:08:46.811Z,24.15
2018-08-12T06:13:50.829Z,24.18
2018-08-12T06:18:55.085Z,24.13
2018-08-12T06:23:58.833Z,24.16
2018-08-12T06:29:02.297Z,24.17
2018-08-12T06:34:05.812Z,24.19
2018-08-12T06:39:11.492Z,24.19
2018-08-12T06:44:15.094Z,24.21
2018-08-12T06:49:18.568Z,24.22
2018-08-12T06:54:22.227Z,24.25
2018-08-12T06:59:25.860Z,24.26
2018-08-12T07:04:29.638Z,24.28
2018-08-12T07:09:33.571Z,24.19
2018-08-12T07:14:37.324Z,24.14
2018-08-12T07:19:40.832Z,24.26
2018-08-12T07:24:44.560Z,24.25
2018-08-12T07:29:48.136Z,24.19
2018-08-12T07:34:51.765Z,24.17
2018-08-12T07:39:55.194Z,24.19
2018-08-12T07:44:59.021Z,24.32
2018-08-12T07:50:02.605Z,24.32
2018-08-12T07:55:07.033Z,24.23
2018-08-12T08:00:15.192Z,24.31
2018-08-12T08:05:18.747Z,24.35
2018-08-12T08:10:22.224Z,24.37
2018-08-12T08:15:25.724Z,24.32
2018-08-12T08:20:29.262Z,24.35
2018-08-12T08:25:32.922Z,24.41
2018-08-12T08:30:36.591Z,24.42
2018-08-12T08:35:40.141Z,24.46
2018-08-12T08:40:43.825Z,24.49
2018-08-12T08:45:47.750Z,24.49
2018-08-12T08:50:51.550Z,24.53
2018-08-12T08:55:55.191Z,24.55
2018-08-12T09:00:58.617Z,24.57
2018-08-12T09:06:02.243Z,24.60
2018-08-12T09:11:06.729Z,24.62
2018-08-12T09:16:10.327Z,24.65
2018-08-12T09:21:13.839Z,24.66
2018-08-12T09:26:17.369Z,24.69
2018-08-12T09:31:21.059Z,24.73
2018-08-12T09:36:24.544Z,24.81
2018-08-12T09:41:28.108Z,24.87
2018-08-12T09:46:31.644Z,24.93
2018-08-12T09:51:35.331Z,24.97
2018-08-12T09:56:44.500Z,25.04
2018-08-12T10:01:47.988Z,25.09
2018-08-12T10:06:51.724Z,25.11
2018-08-12T10:11:55.290Z,25.13
2018-08-12T10:16:58.819Z,25.16
2018-08-12T10:22:02.985Z,25.17
2018-08-12T10:27:06.850Z,25.20
2018-08-12T10:32:10.372Z,25.18
2018-08-12T10:37:13.856Z,25.23
2018-08-12T10:42:17.449Z,25.25
2018-08-12T10:47:21.217Z,25.29
2018-08-12T10:52:24.817Z,25.37
2018-08-12T10:57:28.672Z,25.41
2018-08-12T11:02:32.229Z,25.43
2018-08-12T11:07:36.197Z,25.44
2018-08-12T11:12:39.923Z,25.52
2018-08-12T11:17:43.420Z,25.57
2018-08-12T11:22:47.171Z,25.62
2018-08-12T11:27:50.781Z,25.66
2018-08-12T11:32:54.386Z,25.70
2018-08-12T11:37:58.154Z,25.72
2018-08-12T11:43:01.735Z,25.73
2018-08-12T11:48:05.296Z,25.73
2018-08-12T11:53:09.892Z,25.77
2018-08-12T11:58:13.612Z,25.73
2018-08-12T12:03:17.111Z,25.79
2018-08-12T12:08:20.618Z,25.79
2018-08-12T12:13:24.147Z,25.81
2018-08-12T12:18:27.883Z,25.81
2018-08-12T12:23:31.474Z,25.79
2018-08-12T12:28:35.072Z,25.82
2018-08-12T12:33:38.741Z,25.84
2018-08-12T12:38:43.804Z,25.87
2018-08-12T12:43:47.717Z,25.87
2018-08-12T12:48:51.535Z,25.90
2018-08-12T12:53:55.264Z,25.90
2018-08-12T12:58:58.747Z,25.90
2018-08-12T13:04:02.394Z,25.91
2018-08-12T13:09:09.496Z,25.92
2018-08-12T13:14:13.012Z,25.91
2018-08-12T13:19:18.549Z,25.94
2018-08-12T13:24:22.140Z,25.95
2018-08-12T13:29:25.886Z,25.94
2018-08-12T13:34:30.338Z,25.95
2018-08-12T13:39:33.909Z,25.98
2018-08-12T13:44:37.737Z,25.98
2018-08-12T13:49:41.317Z,25.97
2018-08-12T13:54:45.114Z,25.97
2018-08-12T13:59:49.109Z,25.98
2018-08-12T14:04:52.606Z,25.97
2018-08-12T14:09:56.102Z,26.01
2018-08-12T14:14:59.828Z,26.02
2018-08-12T14:20:03.517Z,26.03
2018-08-12T14:25:08.257Z,26.04
2018-08-12T14:30:14.468Z,26.09
2018-08-12T14:35:18.155Z,26.12
2018-08-12T14:40:21.669Z,26.16
2018-08-12T14:45:25.175Z,26.20
2018-08-12T14:50:28.803Z,26.21
2018-08-12T14:55:32.521Z,26.20
2018-08-12T15:00:36.129Z,26.20
2018-08-12T15:05:39.785Z,26.22
2018-08-12T15:10:43.478Z,26.20
2018-08-12T15:15:47.302Z,26.20
2018-08-12T15:20:50.949Z,26.20
2018-08-12T15:25:54.465Z,26.22
2018-08-12T15:30:58.058Z,26.19
2018-08-12T15:36:01.649Z,26.19
2018-08-12T15:41:05.192Z,26.19
2018-08-12T15:46:08.729Z,26.18
2018-08-12T15:51:12.388Z,26.19
2018-08-12T15:56:16.549Z,26.18
2018-08-12T16:01:20.373Z,26.18
2018-08-12T16:06:24.910Z,26.16
2018-08-12T16:11:28.485Z,26.15
2018-08-12T16:16:32.130Z,26.17
2018-08-12T16:21:35.731Z,26.16
2018-08-12T16:26:39.373Z,26.28
2018-08-12T16:31:42.950Z,26.27
2018-08-12T16:36:47.072Z,26.28
2018-08-12T16:41:51.656Z,26.31
2018-08-12T16:46:55.249Z,26.37
2018-08-12T16:51:59.382Z,26.38
2018-08-12T16:57:03.750Z,26.39
2018-08-12T17:02:07.983Z,26.38
2018-08-12T17:07:12.706Z,26.37
2018-08-12T17:12:17.700Z,26.38
2018-08-12T17:17:21.524Z,26.35
2018-08-12T17:22:26.206Z,26.33
2018-08-12T17:27:31.226Z,26.33
2018-08-12T17:32:35.173Z,26.31
2018-08-12T17:37:39.486Z,26.31
2018-08-12T17:42:43.460Z,26.30
2018-08-12T17:47:48.400Z,26.27
2018-08-12T17:52:52.559Z,26.31
2018-08-12T17:57:56.047Z,26.20
2018-08-12T18:02:59.995Z,26.28
2018-08-12T18:08:04.049Z,26.27
2018-08-12T18:13:07.545Z,26.26
2018-08-12T18:18:11.130Z,26.27
2018-08-12T18:23:14.877Z,26.27
2018-08-12T18:28:18.528Z,26.23
2018-08-12T18:33:22.825Z,26.24
2018-08-12T18:38:26.377Z,26.21
2018-08-12T18:43:30.059Z,26.21
2018-08-12T18:48:33.641Z,26.19
2018-08-12T18:53:37.580Z,26.19
2018-08-12T18:58:41.202Z,26.16
2018-08-12T19:03:45.108Z,26.15
2018-08-12T19:08:48.677Z,26.14
2018-08-12T19:13:52.901Z,26.12
2018-08-12T19:18:57.106Z,26.12
2018-08-12T19:24:00.540Z,26.09
2018-08-12T19:29:04.233Z,26.08
2018-08-12T19:34:08.037Z,26.07
2018-08-12T19:39:12.540Z,26.07
2018-08-12T19:44:16.124Z,26.06
2018-08-12T19:49:20.169Z,26.03
2018-08-12T19:54:24.679Z,26.06
2018-08-12T19:59:28.453Z,26.02
2018-08-12T20:04:32.017Z,26.04
2018-08-12T20:09:35.528Z,26.03
2018-08-12T20:14:39.122Z,26.04
2018-08-12T20:19:42.581Z,26.04
2018-08-12T20:24:46.202Z,26.03
2018-08-12T20:29:49.801Z,25.98
2018-08-12T20:34:53.404Z,25.97
2018-08-12T20:39:56.945Z,25.98
2018-08-12T20:45:00.678Z,25.98
2018-08-12T20:50:05.189Z,25.95
2018-08-12T20:55:09.241Z,25.95
2018-08-12T21:00:12.899Z,25.92
2018-08-12T21:05:16.480Z,25.92
2018-08-12T21:10:20.190Z,25.91
2018-08-12T21:15:24.089Z,25.89
2018-08-12T21:20:27.636Z,25.89
2018-08-12T21:25:31.424Z,25.88
2018-08-12T21:30:34.921Z,25.87
2018-08-12T21:35:38.424Z,25.86
2018-08-12T21:40:41.926Z,25.85
2018-08-12T21:45:45.731Z,25.80
2018-08-12T21:50:49.556Z,25.81
2018-08-12T21:55:53.290Z,25.81
2018-08-12T22:00:57.653Z,25.78
2018-08-12T22:06:01.220Z,25.78
2018-08-12T22:11:05.021Z,25.75
2018-08-12T22:16:08.885Z,25.71
2018-08-12T22:21:12.501Z,25.71
2018-08-12T22:26:16.382Z,25.69
2018-08-12T22:31:20.167Z,25.69
2018-08-12T22:36:24.002Z,25.65
2018-08-12T22:41:27.688Z,25.65
2018-08-12T22:46:31.377Z,25.61
2018-08-12T22:51:35.130Z,25.60
2018-08-12T22:56:39.157Z,25.59
2018-08-12T23:01:42.761Z,25.59
2018-08-12T23:06:46.250Z,25.56
2018-08-12T23:11:49.974Z,25.54
2018-08-12T23:16:56.987Z,25.51
2018-08-12T23:22:00.509Z,25.50
2018-08-12T23:27:04.328Z,25.49
2018-08-12T23:32:07.921Z,25.46
2018-08-12T23:37:11.532Z,25.45
2018-08-12T23:42:15.121Z,25.41
2018-08-12T23:47:18.632Z,25.39
2018-08-12T23:52:22.089Z,25.38
2018-08-12T23:57:25.726Z,25.37
